sensor_id;sensor_type;location;lat;lon;timestamp;temperature;humidity
25108;DHT22;13090;53.422;7.670;2023-04-24T00:02:23;13.70;88.80
25108;DHT22;13090;53.422;7.670;2023-04-24T00:07:25;13.80;86.80
25108;DHT22;13090;53.422;7.670;2023-04-24T00:12:29;13.80;86.40
25108;DHT22;13090;53.422;7.670;2023-04-24T00:17:31;13.90;86.60
25108;DHT22;13090;53.422;7.670;2023-04-24T00:22:33;13.90;85.70
25108;DHT22;13090;53.422;7.670;2023-04-24T00:27:37;13.90;85.10
25108;DHT22;13090;53.422;7.670;2023-04-24T00:32:39;14.00;84.70
25108;DHT22;13090;53.422;7.670;2023-04-24T00:37:41;14.00;84.50
25108;DHT22;13090;53.422;7.670;2023-04-24T00:42:45;14.00;84.10
25108;DHT22;13090;53.422;7.670;2023-04-24T00:47:48;14.00;83.20
25108;DHT22;13090;53.422;7.670;2023-04-24T00:52:50;13.90;82.50
25108;DHT22;13090;53.422;7.670;2023-04-24T00:57:54;13.80;82.10
25108;DHT22;13090;53.422;7.670;2023-04-24T01:02:57;13.70;82.00
25108;DHT22;13090;53.422;7.670;2023-04-24T01:08:01;13.50;82.20
25108;DHT22;13090;53.422;7.670;2023-04-24T01:13:07;13.40;82.20
25108;DHT22;13090;53.422;7.670;2023-04-24T01:18:10;13.30;82.20
25108;DHT22;13090;53.422;7.670;2023-04-24T01:23:13;13.10;82.30
25108;DHT22;13090;53.422;7.670;2023-04-24T01:28:16;13.10;83.00
25108;DHT22;13090;53.422;7.670;2023-04-24T01:33:21;13.00;83.40
25108;DHT22;13090;53.422;7.670;2023-04-24T01:38:24;12.90;83.70
25108;DHT22;13090;53.422;7.670;2023-04-24T01:43:27;12.80;83.60
25108;DHT22;13090;53.422;7.670;2023-04-24T01:48:30;12.80;84.20
25108;DHT22;13090;53.422;7.670;2023-04-24T01:53:34;12.70;83.80
25108;DHT22;13090;53.422;7.670;2023-04-24T01:58:37;12.60;85.20
25108;DHT22;13090;53.422;7.670;2023-04-24T02:03:39;12.50;85.30
25108;DHT22;13090;53.422;7.670;2023-04-24T02:08:43;12.40;85.40
25108;DHT22;13090;53.422;7.670;2023-04-24T02:13:45;12.30;86.00
25108;DHT22;13090;53.422;7.670;2023-04-24T02:18:47;12.20;86.00
25108;DHT22;13090;53.422;7.670;2023-04-24T02:23:51;12.10;86.60
25108;DHT22;13090;53.422;7.670;2023-04-24T02:28:53;12.10;86.70
25108;DHT22;13090;53.422;7.670;2023-04-24T02:33:55;12.00;87.00
25108;DHT22;13090;53.422;7.670;2023-04-24T02:38:59;12.00;87.20
25108;DHT22;13090;53.422;7.670;2023-04-24T02:44:01;12.00;87.10
25108;DHT22;13090;53.422;7.670;2023-04-24T02:49:03;12.00;87.10
25108;DHT22;13090;53.422;7.670;2023-04-24T02:54:07;12.00;87.00
25108;DHT22;13090;53.422;7.670;2023-04-24T02:59:09;12.00;86.60
25108;DHT22;13090;53.422;7.670;2023-04-24T03:04:11;12.00;87.00
25108;DHT22;13090;53.422;7.670;2023-04-24T03:09:15;12.00;87.00
25108;DHT22;13090;53.422;7.670;2023-04-24T03:14:18;12.00;87.20
25108;DHT22;13090;53.422;7.670;2023-04-24T03:19:20;11.90;86.70
25108;DHT22;13090;53.422;7.670;2023-04-24T03:24:23;12.00;86.80
25108;DHT22;13090;53.422;7.670;2023-04-24T03:29:26;12.00;86.70
25108;DHT22;13090;53.422;7.670;2023-04-24T03:34:31;11.90;87.10
25108;DHT22;13090;53.422;7.670;2023-04-24T03:39:35;12.00;86.80
25108;DHT22;13090;53.422;7.670;2023-04-24T03:44:37;11.90;87.00
25108;DHT22;13090;53.422;7.670;2023-04-24T03:49:39;11.90;87.00
25108;DHT22;13090;53.422;7.670;2023-04-24T03:54:43;11.90;87.20
25108;DHT22;13090;53.422;7.670;2023-04-24T03:59:45;11.90;87.50
25108;DHT22;13090;53.422;7.670;2023-04-24T04:04:47;11.90;87.60
25108;DHT22;13090;53.422;7.670;2023-04-24T04:09:51;12.00;87.90
25108;DHT22;13090;53.422;7.670;2023-04-24T04:14:53;12.00;87.70
25108;DHT22;13090;53.422;7.670;2023-04-24T04:19:56;12.00;87.40
25108;DHT22;13090;53.422;7.670;2023-04-24T04:24:59;12.00;87.30
25108;DHT22;13090;53.422;7.670;2023-04-24T04:30:02;12.10;87.50
25108;DHT22;13090;53.422;7.670;2023-04-24T04:35:05;12.10;87.30
25108;DHT22;13090;53.422;7.670;2023-04-24T04:40:09;12.10;87.50
25108;DHT22;13090;53.422;7.670;2023-04-24T04:45:11;12.10;87.20
25108;DHT22;13090;53.422;7.670;2023-04-24T04:50:13;12.10;87.10
25108;DHT22;13090;53.422;7.670;2023-04-24T04:55:17;12.20;87.00
25108;DHT22;13090;53.422;7.670;2023-04-24T05:00:19;12.20;87.00
25108;DHT22;13090;53.422;7.670;2023-04-24T05:05:21;12.20;87.00
25108;DHT22;13090;53.422;7.670;2023-04-24T05:10:25;12.20;86.80
25108;DHT22;13090;53.422;7.670;2023-04-24T05:15:27;12.20;86.60
25108;DHT22;13090;53.422;7.670;2023-04-24T05:20:30;12.20;86.40
25108;DHT22;13090;53.422;7.670;2023-04-24T05:25:33;12.20;86.40
25108;DHT22;13090;53.422;7.670;2023-04-24T05:30:35;12.20;86.50
25108;DHT22;13090;53.422;7.670;2023-04-24T05:35:38;12.20;86.50
25108;DHT22;13090;53.422;7.670;2023-04-24T05:40:41;12.30;86.50
25108;DHT22;13090;53.422;7.670;2023-04-24T05:45:43;12.30;86.40
25108;DHT22;13090;53.422;7.670;2023-04-24T05:50:46;12.30;86.20
25108;DHT22;13090;53.422;7.670;2023-04-24T05:55:49;12.30;86.20
25108;DHT22;13090;53.422;7.670;2023-04-24T06:00:51;12.20;86.50
25108;DHT22;13090;53.422;7.670;2023-04-24T06:05:53;12.20;86.70
25108;DHT22;13090;53.422;7.670;2023-04-24T06:10:57;12.10;86.70
25108;DHT22;13090;53.422;7.670;2023-04-24T06:15:59;12.10;87.30
25108;DHT22;13090;53.422;7.670;2023-04-24T06:21:02;12.00;87.00
25108;DHT22;13090;53.422;7.670;2023-04-24T06:26:05;12.00;87.20
25108;DHT22;13090;53.422;7.670;2023-04-24T06:31:09;12.00;87.50
25108;DHT22;13090;53.422;7.670;2023-04-24T06:36:12;12.00;87.50
25108;DHT22;13090;53.422;7.670;2023-04-24T06:41:16;12.10;87.70
25108;DHT22;13090;53.422;7.670;2023-04-24T06:46:18;12.20;88.60
25108;DHT22;13090;53.422;7.670;2023-04-24T06:51:20;12.20;87.50
25108;DHT22;13090;53.422;7.670;2023-04-24T06:56:25;12.30;87.60
25108;DHT22;13090;53.422;7.670;2023-04-24T07:01:28;12.30;87.60
25108;DHT22;13090;53.422;7.670;2023-04-24T07:06:30;12.40;88.30
25108;DHT22;13090;53.422;7.670;2023-04-24T07:11:34;12.40;87.40
25108;DHT22;13090;53.422;7.670;2023-04-24T07:16:36;12.40;87.60
25108;DHT22;13090;53.422;7.670;2023-04-24T07:21:39;12.50;87.70
25108;DHT22;13090;53.422;7.670;2023-04-24T07:26:43;12.60;87.70
25108;DHT22;13090;53.422;7.670;2023-04-24T07:31:45;12.60;87.70
25108;DHT22;13090;53.422;7.670;2023-04-24T07:36:48;12.70;87.70
25108;DHT22;13090;53.422;7.670;2023-04-24T07:41:52;12.80;87.50
25108;DHT22;13090;53.422;7.670;2023-04-24T07:46:54;12.80;87.70
25108;DHT22;13090;53.422;7.670;2023-04-24T07:51:58;12.80;87.50
25108;DHT22;13090;53.422;7.670;2023-04-24T07:57:02;12.80;87.50
25108;DHT22;13090;53.422;7.670;2023-04-24T08:02:04;12.80;87.60
25108;DHT22;13090;53.422;7.670;2023-04-24T08:07:06;12.80;87.50
25108;DHT22;13090;53.422;7.670;2023-04-24T08:12:10;12.80;87.50
25108;DHT22;13090;53.422;7.670;2023-04-24T08:17:12;12.80;87.60
25108;DHT22;13090;53.422;7.670;2023-04-24T08:22:14;12.90;87.80
25108;DHT22;13090;53.422;7.670;2023-04-24T08:27:18;12.90;87.80
25108;DHT22;13090;53.422;7.670;2023-04-24T08:32:20;12.90;87.80
25108;DHT22;13090;53.422;7.670;2023-04-24T08:37:23;13.00;87.60
25108;DHT22;13090;53.422;7.670;2023-04-24T08:42:28;13.00;87.50
25108;DHT22;13090;53.422;7.670;2023-04-24T08:47:33;13.10;87.70
25108;DHT22;13090;53.422;7.670;2023-04-24T08:52:37;13.10;87.50
25108;DHT22;13090;53.422;7.670;2023-04-24T08:57:41;13.10;87.30
25108;DHT22;13090;53.422;7.670;2023-04-24T09:02:45;13.10;87.30
25108;DHT22;13090;53.422;7.670;2023-04-24T09:07:53;13.10;87.20
25108;DHT22;13090;53.422;7.670;2023-04-24T09:12:59;13.00;87.10
25108;DHT22;13090;53.422;7.670;2023-04-24T09:18:01;13.00;87.30
25108;DHT22;13090;53.422;7.670;2023-04-24T09:23:04;13.00;87.30
25108;DHT22;13090;53.422;7.670;2023-04-24T09:28:07;13.00;87.50
25108;DHT22;13090;53.422;7.670;2023-04-24T09:33:10;13.10;87.80
25108;DHT22;13090;53.422;7.670;2023-04-24T09:38:13;13.20;88.40
25108;DHT22;13090;53.422;7.670;2023-04-24T09:48:41;13.60;88.50
25108;DHT22;13090;53.422;7.670;2023-04-24T09:53:46;13.70;87.50
25108;DHT22;13090;53.422;7.670;2023-04-24T09:58:48;13.80;87.30
25108;DHT22;13090;53.422;7.670;2023-04-24T10:03:52;13.80;86.90
25108;DHT22;13090;53.422;7.670;2023-04-24T10:08:54;13.80;87.20
25108;DHT22;13090;53.422;7.670;2023-04-24T10:13:56;13.90;87.40
25108;DHT22;13090;53.422;7.670;2023-04-24T10:19:02;14.10;87.10
25108;DHT22;13090;53.422;7.670;2023-04-24T10:24:05;14.20;87.00
25108;DHT22;13090;53.422;7.670;2023-04-24T10:29:08;14.20;86.10
25108;DHT22;13090;53.422;7.670;2023-04-24T10:34:15;14.20;85.60
25108;DHT22;13090;53.422;7.670;2023-04-24T10:39:18;14.10;85.40
25108;DHT22;13090;53.422;7.670;2023-04-24T10:44:36;14.00;85.20
25108;DHT22;13090;53.422;7.670;2023-04-24T10:49:40;13.90;85.40
25108;DHT22;13090;53.422;7.670;2023-04-24T10:54:44;13.80;85.40
25108;DHT22;13090;53.422;7.670;2023-04-24T10:59:48;13.70;85.30
25108;DHT22;13090;53.422;7.670;2023-04-24T11:04:52;13.60;85.30
25108;DHT22;13090;53.422;7.670;2023-04-24T11:09:58;13.50;85.50
25108;DHT22;13090;53.422;7.670;2023-04-24T11:15:02;13.40;85.60
25108;DHT22;13090;53.422;7.670;2023-04-24T11:20:08;13.40;85.50
25108;DHT22;13090;53.422;7.670;2023-04-24T11:25:30;13.30;85.40
25108;DHT22;13090;53.422;7.670;2023-04-24T11:30:33;13.20;85.40
25108;DHT22;13090;53.422;7.670;2023-04-24T11:35:40;13.10;85.20
25108;DHT22;13090;53.422;7.670;2023-04-24T11:40:42;13.00;85.40
25108;DHT22;13090;53.422;7.670;2023-04-24T11:45:48;13.00;85.50
25108;DHT22;13090;53.422;7.670;2023-04-24T11:50:52;12.90;85.50
25108;DHT22;13090;53.422;7.670;2023-04-24T11:55:54;12.90;85.60
25108;DHT22;13090;53.422;7.670;2023-04-24T12:00:57;12.90;85.50
25108;DHT22;13090;53.422;7.670;2023-04-24T12:06:07;12.80;85.50
25108;DHT22;13090;53.422;7.670;2023-04-24T12:11:14;12.80;85.70
25108;DHT22;13090;53.422;7.670;2023-04-24T12:16:16;12.80;85.50
25108;DHT22;13090;53.422;7.670;2023-04-24T12:21:21;12.80;85.70
25108;DHT22;13090;53.422;7.670;2023-04-24T12:26:24;12.80;85.80
25108;DHT22;13090;53.422;7.670;2023-04-24T12:31:27;12.80;86.00
25108;DHT22;13090;53.422;7.670;2023-04-24T12:36:30;12.90;86.10
25108;DHT22;13090;53.422;7.670;2023-04-24T12:41:33;13.00;86.20
25108;DHT22;13090;53.422;7.670;2023-04-24T12:46:35;13.10;86.00
25108;DHT22;13090;53.422;7.670;2023-04-24T12:51:39;13.10;85.80
25108;DHT22;13090;53.422;7.670;2023-04-24T12:56:41;13.20;85.70
25108;DHT22;13090;53.422;7.670;2023-04-24T13:01:43;13.20;85.50
25108;DHT22;13090;53.422;7.670;2023-04-24T13:06:47;13.20;85.10
25108;DHT22;13090;53.422;7.670;2023-04-24T13:11:49;13.10;84.80
25108;DHT22;13090;53.422;7.670;2023-04-24T13:16:52;13.10;85.00
25108;DHT22;13090;53.422;7.670;2023-04-24T13:21:57;13.00;84.90
25108;DHT22;13090;53.422;7.670;2023-04-24T13:26:59;13.00;84.80
25108;DHT22;13090;53.422;7.670;2023-04-24T13:32:01;13.00;84.90
25108;DHT22;13090;53.422;7.670;2023-04-24T13:37:05;12.90;84.70
25108;DHT22;13090;53.422;7.670;2023-04-24T13:42:08;12.90;84.70
25108;DHT22;13090;53.422;7.670;2023-04-24T13:47:10;12.90;85.00
25108;DHT22;13090;53.422;7.670;2023-04-24T13:52:14;13.00;85.00
25108;DHT22;13090;53.422;7.670;2023-04-24T13:57:16;13.10;84.70
25108;DHT22;13090;53.422;7.670;2023-04-24T14:02:18;13.10;84.40
25108;DHT22;13090;53.422;7.670;2023-04-24T14:07:22;13.30;84.10
25108;DHT22;13090;53.422;7.670;2023-04-24T14:12:24;13.40;83.50
25108;DHT22;13090;53.422;7.670;2023-04-24T14:17:27;13.40;83.40
25108;DHT22;13090;53.422;7.670;2023-04-24T14:22:31;13.50;82.80
25108;DHT22;13090;53.422;7.670;2023-04-24T14:27:33;13.40;82.00
25108;DHT22;13090;53.422;7.670;2023-04-24T14:32:35;13.40;81.80
25108;DHT22;13090;53.422;7.670;2023-04-24T14:37:39;13.20;81.70
25108;DHT22;13090;53.422;7.670;2023-04-24T14:42:42;13.10;81.90
25108;DHT22;13090;53.422;7.670;2023-04-24T14:47:44;13.10;81.90
25108;DHT22;13090;53.422;7.670;2023-04-24T14:52:48;13.00;81.60
25108;DHT22;13090;53.422;7.670;2023-04-24T14:57:50;12.90;81.70
25108;DHT22;13090;53.422;7.670;2023-04-24T15:02:52;12.80;81.90
25108;DHT22;13090;53.422;7.670;2023-04-24T15:07:57;12.70;81.70
25108;DHT22;13090;53.422;7.670;2023-04-24T15:12:59;12.70;82.00
25108;DHT22;13090;53.422;7.670;2023-04-24T15:18:01;12.60;82.30
25108;DHT22;13090;53.422;7.670;2023-04-24T15:23:05;12.60;82.30
25108;DHT22;13090;53.422;7.670;2023-04-24T15:28:07;12.60;82.50
25108;DHT22;13090;53.422;7.670;2023-04-24T15:33:09;12.50;82.70
25108;DHT22;13090;53.422;7.670;2023-04-24T15:38:13;12.60;82.90
25108;DHT22;13090;53.422;7.670;2023-04-24T15:43:15;12.60;83.00
25108;DHT22;13090;53.422;7.670;2023-04-24T15:48:18;12.60;83.00
25108;DHT22;13090;53.422;7.670;2023-04-24T15:53:22;12.60;83.20
25108;DHT22;13090;53.422;7.670;2023-04-24T15:58:24;12.60;83.40
25108;DHT22;13090;53.422;7.670;2023-04-24T16:03:26;12.60;83.30
25108;DHT22;13090;53.422;7.670;2023-04-24T16:08:30;12.50;83.10
25108;DHT22;13090;53.422;7.670;2023-04-24T16:13:33;12.40;83.20
25108;DHT22;13090;53.422;7.670;2023-04-24T16:18:35;12.40;83.50
25108;DHT22;13090;53.422;7.670;2023-04-24T16:23:39;12.30;83.70
25108;DHT22;13090;53.422;7.670;2023-04-24T16:28:41;12.30;84.00
25108;DHT22;13090;53.422;7.670;2023-04-24T16:33:43;12.30;84.20
25108;DHT22;13090;53.422;7.670;2023-04-24T16:38:47;12.30;84.30
25108;DHT22;13090;53.422;7.670;2023-04-24T16:43:50;12.30;84.40
25108;DHT22;13090;53.422;7.670;2023-04-24T16:48:52;12.30;84.50
25108;DHT22;13090;53.422;7.670;2023-04-24T16:53:56;12.30;84.60
25108;DHT22;13090;53.422;7.670;2023-04-24T16:58:59;12.30;84.50
25108;DHT22;13090;53.422;7.670;2023-04-24T17:04:01;12.30;84.40
25108;DHT22;13090;53.422;7.670;2023-04-24T17:09:05;12.30;84.40
25108;DHT22;13090;53.422;7.670;2023-04-24T17:14:07;12.20;84.30
25108;DHT22;13090;53.422;7.670;2023-04-24T17:19:09;12.20;84.50
25108;DHT22;13090;53.422;7.670;2023-04-24T17:24:13;12.10;84.60
25108;DHT22;13090;53.422;7.670;2023-04-24T17:29:15;12.10;84.90
25108;DHT22;13090;53.422;7.670;2023-04-24T17:34:17;12.10;85.10
25108;DHT22;13090;53.422;7.670;2023-04-24T17:39:21;12.00;85.10
25108;DHT22;13090;53.422;7.670;2023-04-24T17:44:24;12.00;85.20
25108;DHT22;13090;53.422;7.670;2023-04-24T17:49:26;12.00;85.20
25108;DHT22;13090;53.422;7.670;2023-04-24T17:54:29;12.00;85.20
25108;DHT22;13090;53.422;7.670;2023-04-24T17:59:31;11.90;85.30
25108;DHT22;13090;53.422;7.670;2023-04-24T18:04:34;11.90;85.20
25108;DHT22;13090;53.422;7.670;2023-04-24T18:09:38;11.90;85.30
25108;DHT22;13090;53.422;7.670;2023-04-24T18:14:40;11.90;85.40
25108;DHT22;13090;53.422;7.670;2023-04-24T18:19:42;11.90;85.50
25108;DHT22;13090;53.422;7.670;2023-04-24T18:24:45;11.80;85.40
25108;DHT22;13090;53.422;7.670;2023-04-24T18:29:48;11.80;85.40
25108;DHT22;13090;53.422;7.670;2023-04-24T18:34:50;11.70;85.40
25108;DHT22;13090;53.422;7.670;2023-04-24T18:39:54;11.70;85.40
25108;DHT22;13090;53.422;7.670;2023-04-24T18:44:56;11.60;85.50
25108;DHT22;13090;53.422;7.670;2023-04-24T18:49:58;11.60;85.50
25108;DHT22;13090;53.422;7.670;2023-04-24T18:55:02;11.60;85.40
25108;DHT22;13090;53.422;7.670;2023-04-24T19:00:05;11.50;85.40
25108;DHT22;13090;53.422;7.670;2023-04-24T19:05:08;11.50;85.50
25108;DHT22;13090;53.422;7.670;2023-04-24T19:10:12;11.40;85.60
25108;DHT22;13090;53.422;7.670;2023-04-24T19:15:14;11.40;85.60
25108;DHT22;13090;53.422;7.670;2023-04-24T19:20:17;11.30;85.60
25108;DHT22;13090;53.422;7.670;2023-04-24T19:25:20;11.30;85.70
25108;DHT22;13090;53.422;7.670;2023-04-24T19:30:23;11.20;85.90
25108;DHT22;13090;53.422;7.670;2023-04-24T19:35:25;11.20;85.80
25108;DHT22;13090;53.422;7.670;2023-04-24T19:40:28;11.20;85.80
25108;DHT22;13090;53.422;7.670;2023-04-24T19:45:30;11.20;85.90
25108;DHT22;13090;53.422;7.670;2023-04-24T19:50:33;11.20;86.00
25108;DHT22;13090;53.422;7.670;2023-04-24T19:55:36;11.20;86.00
25108;DHT22;13090;53.422;7.670;2023-04-24T20:00:39;11.20;87.10
25108;DHT22;13090;53.422;7.670;2023-04-24T20:05:41;11.10;86.00
25108;DHT22;13090;53.422;7.670;2023-04-24T20:10:44;11.10;86.00
25108;DHT22;13090;53.422;7.670;2023-04-24T20:15:46;11.10;86.30
25108;DHT22;13090;53.422;7.670;2023-04-24T20:20:49;11.10;86.30
25108;DHT22;13090;53.422;7.670;2023-04-24T20:25:52;11.10;86.40
25108;DHT22;13090;53.422;7.670;2023-04-24T20:30:55;11.00;86.40
25108;DHT22;13090;53.422;7.670;2023-04-24T20:35:58;11.00;86.30
25108;DHT22;13090;53.422;7.670;2023-04-24T20:41:01;11.00;86.50
25108;DHT22;13090;53.422;7.670;2023-04-24T20:46:04;11.00;86.70
25108;DHT22;13090;53.422;7.670;2023-04-24T20:51:06;11.00;86.70
25108;DHT22;13090;53.422;7.670;2023-04-24T20:56:10;11.10;86.90
25108;DHT22;13090;53.422;7.670;2023-04-24T21:01:12;11.10;87.10
25108;DHT22;13090;53.422;7.670;2023-04-24T21:06:15;11.10;87.20
25108;DHT22;13090;53.422;7.670;2023-04-24T21:11:18;11.20;87.20
25108;DHT22;13090;53.422;7.670;2023-04-24T21:16:21;11.20;87.10
25108;DHT22;13090;53.422;7.670;2023-04-24T21:21:23;11.20;87.00
25108;DHT22;13090;53.422;7.670;2023-04-24T21:26:27;11.20;86.70
25108;DHT22;13090;53.422;7.670;2023-04-24T21:31:29;11.10;86.60
25108;DHT22;13090;53.422;7.670;2023-04-24T21:36:31;11.10;86.60
25108;DHT22;13090;53.422;7.670;2023-04-24T21:41:35;11.00;86.70
25108;DHT22;13090;53.422;7.670;2023-04-24T21:46:44;11.00;86.80
25108;DHT22;13090;53.422;7.670;2023-04-24T21:52:20;11.00;86.80
25108;DHT22;13090;53.422;7.670;2023-04-24T21:58:39;10.90;86.50
25108;DHT22;13090;53.422;7.670;2023-04-24T22:04:16;10.90;86.70
25108;DHT22;13090;53.422;7.670;2023-04-24T22:09:46;10.80;86.10
25108;DHT22;13090;53.422;7.670;2023-04-24T22:33:28;10.50;85.60
25108;DHT22;13090;53.422;7.670;2023-04-24T22:38:41;10.50;85.40
25108;DHT22;13090;53.422;7.670;2023-04-24T22:50:24;10.30;85.10
25108;DHT22;13090;53.422;7.670;2023-04-24T22:55:45;10.20;85.00
25108;DHT22;13090;53.422;7.670;2023-04-24T23:00:51;10.10;84.90
25108;DHT22;13090;53.422;7.670;2023-04-24T23:06:30;10.00;84.80
25108;DHT22;13090;53.422;7.670;2023-04-24T23:11:58;9.90;84.70
25108;DHT22;13090;53.422;7.670;2023-04-24T23:17:03;9.90;84.70
25108;DHT22;13090;53.422;7.670;2023-04-24T23:28:46;9.80;84.40
25108;DHT22;13090;53.422;7.670;2023-04-24T23:34:17;9.80;84.60
25108;DHT22;13090;53.422;7.670;2023-04-24T23:39:26;9.80;84.30
25108;DHT22;13090;53.422;7.670;2023-04-24T23:44:51;9.70;84.30
25108;DHT22;13090;53.422;7.670;2023-04-24T23:50:31;9.70;84.20
25108;DHT22;13090;53.422;7.670;2023-04-24T23:55:43;9.60;85.10
